createdAt,value
2022-11-20T00:00:04.821Z,47.67
2022-11-20T00:02:33.408Z,57.47
2022-11-20T00:05:02.146Z,62.17
2022-11-20T00:07:30.968Z,52.63
2022-11-20T00:09:59.685Z,62.77
2022-11-20T00:12:29.585Z,62.10
2022-11-20T00:14:58.292Z,54.80
2022-11-20T00:17:28.497Z,57.87
2022-11-20T00:19:57.186Z,64.50
2022-11-20T00:22:25.835Z,57.50
2022-11-20T00:24:54.427Z,53.47
2022-11-20T00:27:23.099Z,59.17
2022-11-20T00:29:51.802Z,59.10
2022-11-20T00:32:20.563Z,53.37
2022-11-20T00:34:50.660Z,60.73
2022-11-20T00:37:19.417Z,56.90
2022-11-20T00:39:48.069Z,63.17
2022-11-20T00:42:16.824Z,63.97
2022-11-20T00:44:45.441Z,67.30
2022-11-20T00:47:14.108Z,62.50
2022-11-20T00:49:42.752Z,54.73
2022-11-20T00:52:12.806Z,60.50
2022-11-20T00:54:41.473Z,61.07
2022-11-20T00:57:10.142Z,50.57
2022-11-20T00:59:38.918Z,57.70
2022-11-20T01:02:07.553Z,57.77
2022-11-20T01:04:36.307Z,60.13
2022-11-20T01:07:05.064Z,51.23
2022-11-20T01:09:35.358Z,46.50
2022-11-20T01:12:04.006Z,49.20
2022-11-20T01:14:32.696Z,51.50
2022-11-20T01:17:01.358Z,51.00
2022-11-20T01:19:30.035Z,49.33
2022-11-20T01:21:58.845Z,40.00
2022-11-20T01:24:27.519Z,48.40
2022-11-20T01:26:57.616Z,57.93
2022-11-20T01:29:27.337Z,48.30
2022-11-20T01:31:56.020Z,45.97
2022-11-20T01:34:26.118Z,50.60
2022-11-20T01:36:55.111Z,49.37
2022-11-20T01:39:25.782Z,54.00
2022-11-20T01:42:14.512Z,55.00
2022-11-20T01:44:58.267Z,49.00
2022-11-20T01:47:35.923Z,59.37
2022-11-20T01:50:08.394Z,57.20
2022-11-20T01:52:42.022Z,52.53
2022-11-20T01:55:13.747Z,58.77
2022-11-20T01:57:44.156Z,58.50
2022-11-20T02:00:15.741Z,54.50
2022-11-20T02:02:48.125Z,53.93
2022-11-20T02:05:22.982Z,57.20
2022-11-20T02:07:52.908Z,56.83
2022-11-20T02:10:21.571Z,53.97
2022-11-20T02:13:08.909Z,55.53
2022-11-20T02:15:37.811Z,52.57
2022-11-20T02:18:07.945Z,53.60
2022-11-20T02:20:36.646Z,50.50
2022-11-20T02:23:10.706Z,57.53
2022-11-20T02:25:42.283Z,52.30
2022-11-20T02:28:11.048Z,51.80
2022-11-20T02:30:39.700Z,48.83
2022-11-20T02:33:08.357Z,55.27
2022-11-20T02:35:45.617Z,55.90
2022-11-20T02:38:15.184Z,55.20
2022-11-20T02:40:45.683Z,53.60
2022-11-20T02:43:14.288Z,56.27
2022-11-20T02:45:42.890Z,53.40
2022-11-20T02:48:11.560Z,55.27
2022-11-20T02:50:41.688Z,51.97
2022-11-20T02:53:10.283Z,54.53
2022-11-20T02:55:39.382Z,50.47
2022-11-20T02:58:09.431Z,51.47
2022-11-20T03:00:38.107Z,49.67
2022-11-20T03:03:06.797Z,54.70
2022-11-20T03:05:35.524Z,55.50
2022-11-20T03:08:04.282Z,55.73
2022-11-20T03:10:32.968Z,49.07
2022-11-20T03:13:01.615Z,52.57
2022-11-20T03:15:31.784Z,44.50
2022-11-20T03:18:00.579Z,46.10
2022-11-20T03:20:29.188Z,48.33
2022-11-20T03:22:57.900Z,48.97
2022-11-20T03:25:26.604Z,56.60
2022-11-20T03:27:55.930Z,43.37
2022-11-20T03:30:29.228Z,47.17
2022-11-20T03:33:01.038Z,53.27
2022-11-20T03:35:29.649Z,56.20
2022-11-20T03:37:59.475Z,53.50
2022-11-20T03:40:28.136Z,50.80
2022-11-20T03:42:56.743Z,45.37
2022-11-20T03:45:25.377Z,50.00
2022-11-20T03:47:54.199Z,50.73
2022-11-20T03:50:24.305Z,56.00
2022-11-20T03:52:52.876Z,51.30
2022-11-20T03:55:21.500Z,51.30
2022-11-20T03:57:50.162Z,52.80
2022-11-20T04:00:19.120Z,54.20
2022-11-20T04:02:47.723Z,54.77
2022-11-20T04:05:16.445Z,58.83
2022-11-20T04:07:46.450Z,53.63
2022-11-20T04:10:15.066Z,56.63
2022-11-20T04:12:43.695Z,54.77
2022-11-20T04:15:12.545Z,57.90
2022-11-20T04:17:41.206Z,61.77
2022-11-20T04:20:10.724Z,69.80
2022-11-20T04:22:39.332Z,61.00
2022-11-20T04:25:10.494Z,64.53
2022-11-20T04:27:39.144Z,60.87
2022-11-20T04:30:08.786Z,57.10
2022-11-20T04:32:37.399Z,64.63
2022-11-20T04:35:06.833Z,54.70
2022-11-20T04:37:35.406Z,60.63
2022-11-20T04:40:04.056Z,67.07
2022-11-20T04:42:34.132Z,66.73
2022-11-20T04:45:02.775Z,66.77
2022-11-20T04:47:31.478Z,67.07
2022-11-20T04:50:00.226Z,67.63
2022-11-20T04:52:28.900Z,67.30
2022-11-20T04:54:57.596Z,64.53
2022-11-20T04:57:26.233Z,63.63
2022-11-20T04:59:56.260Z,66.17
2022-11-20T05:02:25.069Z,60.90
2022-11-20T05:04:53.712Z,64.13
2022-11-20T05:07:22.367Z,67.17
2022-11-20T05:09:51.097Z,64.70
2022-11-20T05:12:19.754Z,62.47
2022-11-20T05:14:48.448Z,63.10
2022-11-20T05:17:18.683Z,66.87
2022-11-20T05:19:50.605Z,68.40
2022-11-20T05:22:21.760Z,64.30
2022-11-20T05:24:50.418Z,60.53
2022-11-20T05:27:19.317Z,65.47
2022-11-20T05:29:47.909Z,67.00
2022-11-20T05:32:17.990Z,63.47
2022-11-20T05:34:46.708Z,65.67
2022-11-20T05:37:15.307Z,75.13
2022-11-20T05:39:43.998Z,58.60
2022-11-20T05:42:30.226Z,62.27
2022-11-20T05:44:59.051Z,59.57
2022-11-20T05:47:30.529Z,66.90
2022-11-20T05:49:59.203Z,61.27
2022-11-20T05:52:30.317Z,70.57
2022-11-20T05:54:59.167Z,63.17
2022-11-20T05:57:27.758Z,60.80
2022-11-20T05:59:56.791Z,59.37
2022-11-20T06:02:25.475Z,61.17
2022-11-20T06:04:55.688Z,67.60
2022-11-20T06:07:24.370Z,66.73
2022-11-20T06:09:53.024Z,64.57
2022-11-20T06:12:21.678Z,63.73
2022-11-20T06:14:50.345Z,59.33
2022-11-20T06:17:19.618Z,65.03
2022-11-20T06:19:48.285Z,69.87
2022-11-20T06:22:18.391Z,68.10
2022-11-20T06:24:47.056Z,73.13
2022-11-20T06:27:15.737Z,72.63
2022-11-20T06:29:44.527Z,67.07
2022-11-20T06:32:13.199Z,71.93
2022-11-20T06:34:41.848Z,66.23
2022-11-20T06:37:10.889Z,63.27
2022-11-20T06:39:41.085Z,68.90
2022-11-20T06:42:09.820Z,65.43
2022-11-20T06:44:38.429Z,63.90
2022-11-20T06:47:07.172Z,64.63
2022-11-20T06:49:38.256Z,63.03
2022-11-20T06:52:07.115Z,72.17
2022-11-20T06:54:35.832Z,71.73
2022-11-20T06:57:05.979Z,71.60
2022-11-20T06:59:34.644Z,68.53
2022-11-20T07:02:03.424Z,62.90
2022-11-20T07:04:32.098Z,73.97
2022-11-20T07:07:00.859Z,63.40
2022-11-20T07:09:29.722Z,59.40
2022-11-20T07:11:58.454Z,65.27
2022-11-20T07:14:28.544Z,59.73
2022-11-20T07:16:57.259Z,60.17
2022-11-20T07:19:25.925Z,61.80
2022-11-20T07:21:54.615Z,51.93
2022-11-20T07:24:23.359Z,50.17
2022-11-20T07:26:52.175Z,56.17
2022-11-20T07:29:20.989Z,53.73
2022-11-20T07:31:51.360Z,54.03
2022-11-20T07:34:21.107Z,51.10
2022-11-20T07:36:50.423Z,53.30
2022-11-20T07:39:19.227Z,61.90
2022-11-20T07:41:48.077Z,59.73
2022-11-20T07:44:16.685Z,54.80
2022-11-20T07:46:45.382Z,54.13
2022-11-20T07:49:15.523Z,51.70
2022-11-20T07:51:44.206Z,51.93
2022-11-20T07:54:12.886Z,41.57
2022-11-20T07:56:41.546Z,43.50
2022-11-20T07:59:10.241Z,50.37
2022-11-20T08:01:38.941Z,46.90
2022-11-20T08:04:07.819Z,39.57
2022-11-20T08:06:38.272Z,44.47
2022-11-20T08:09:16.274Z,37.70
2022-11-20T08:12:02.310Z,38.90
2022-11-20T08:14:31.035Z,42.67
2022-11-20T08:17:00.500Z,40.50
2022-11-20T08:19:29.412Z,37.33
2022-11-20T08:21:59.539Z,35.10
2022-11-20T08:24:28.398Z,33.37
2022-11-20T08:26:59.384Z,33.47
2022-11-20T08:29:28.761Z,35.20
2022-11-20T08:31:57.310Z,34.60
2022-11-20T08:34:26.098Z,29.57
2022-11-20T08:36:54.626Z,29.03
2022-11-20T08:39:25.124Z,29.83
2022-11-20T08:41:53.864Z,29.57
2022-11-20T08:44:22.578Z,32.37
2022-11-20T08:46:51.224Z,31.43
2022-11-20T08:49:21.135Z,28.37
2022-11-20T08:51:52.906Z,31.10
2022-11-20T08:54:23.829Z,27.93
2022-11-20T08:56:53.993Z,29.40
2022-11-20T08:59:44.017Z,29.97
2022-11-20T09:02:11.615Z,28.23
2022-11-20T09:04:40.325Z,30.70
2022-11-20T09:07:09.141Z,30.13
2022-11-20T09:09:38.009Z,30.17
2022-11-20T09:12:08.603Z,29.00
2022-11-20T09:14:37.266Z,28.30
2022-11-20T09:17:05.853Z,28.70
2022-11-20T09:19:35.778Z,27.83
2022-11-20T09:22:05.179Z,27.67
2022-11-20T09:24:39.818Z,27.47
2022-11-20T09:27:11.840Z,29.30
2022-11-20T09:29:40.810Z,29.57
2022-11-20T09:32:09.590Z,28.33
2022-11-20T09:34:39.214Z,29.50
2022-11-20T09:37:08.840Z,27.07
2022-11-20T09:39:42.563Z,32.10
2022-11-20T09:42:36.145Z,29.40
2022-11-20T09:45:39.721Z,27.47
2022-11-20T09:48:47.044Z,27.70
2022-11-20T09:51:29.136Z,30.47
2022-11-20T09:54:10.966Z,30.00
2022-11-20T09:56:44.248Z,26.40
2022-11-20T09:59:36.001Z,28.57
2022-11-20T10:02:16.208Z,29.27
2022-11-20T10:04:53.225Z,27.50
2022-11-20T10:07:32.382Z,26.80
2022-11-20T10:10:02.009Z,28.53
2022-11-20T10:12:42.722Z,25.57
2022-11-20T10:15:29.865Z,28.53
2022-11-20T10:18:14.648Z,27.97
2022-11-20T10:20:51.411Z,28.30
2022-11-20T10:23:49.758Z,24.43
2022-11-20T10:26:24.577Z,26.07
2022-11-20T10:29:09.089Z,24.67
2022-11-20T10:31:41.949Z,23.97
2022-11-20T10:34:22.995Z,24.20
2022-11-20T10:36:56.745Z,26.77
2022-11-20T10:39:33.701Z,27.73
2022-11-20T10:42:03.115Z,23.50
2022-11-20T10:44:55.179Z,22.77
2022-11-20T10:47:30.188Z,26.10
2022-11-20T10:50:04.070Z,27.70
2022-11-20T10:52:42.567Z,24.77
2022-11-20T10:55:22.770Z,24.17
2022-11-20T10:57:57.259Z,23.33
2022-11-20T11:00:26.003Z,23.57
2022-11-20T11:02:58.690Z,24.83
2022-11-20T11:05:38.828Z,24.90
2022-11-20T11:08:12.974Z,22.23
2022-11-20T11:10:50.243Z,22.63
2022-11-20T11:13:26.214Z,23.93
2022-11-20T11:15:55.826Z,23.07
2022-11-20T11:18:32.973Z,24.50
2022-11-20T11:21:04.507Z,23.57
2022-11-20T11:23:36.251Z,23.50
2022-11-20T11:26:07.813Z,23.30
2022-11-20T11:28:36.814Z,22.90
2022-11-20T11:31:05.701Z,22.33
2022-11-20T11:33:36.118Z,21.50
2022-11-20T11:36:17.913Z,20.70
2022-11-20T11:38:47.185Z,21.30
2022-11-20T11:41:19.969Z,18.23
2022-11-20T11:44:12.793Z,20.10
2022-11-20T11:46:43.578Z,19.20
2022-11-20T11:49:21.395Z,18.43
2022-11-20T11:52:07.837Z,18.93
2022-11-20T11:54:41.291Z,18.10
2022-11-20T11:57:18.556Z,19.00
2022-11-20T12:00:00.191Z,19.30
2022-11-20T12:02:38.543Z,18.13
2022-11-20T12:05:20.378Z,19.17
2022-11-20T12:07:52.016Z,19.67
2022-11-20T12:10:24.763Z,18.63
2022-11-20T12:13:01.236Z,19.43
2022-11-20T12:15:33.312Z,19.93
2022-11-20T12:18:02.562Z,18.80
2022-11-20T12:20:41.982Z,20.87
2022-11-20T12:23:20.539Z,20.60
2022-11-20T12:25:56.364Z,21.67
2022-11-20T12:28:45.963Z,20.30
2022-11-20T12:31:31.262Z,20.50
2022-11-20T12:34:18.295Z,18.20
2022-11-20T12:36:57.534Z,20.30
2022-11-20T12:39:44.684Z,20.07
2022-11-20T12:42:58.539Z,21.40
2022-11-20T12:46:08.827Z,19.77
2022-11-20T12:49:15.269Z,20.83
2022-11-20T12:52:15.660Z,19.37
2022-11-20T12:55:13.774Z,19.07
2022-11-20T12:57:52.732Z,19.33
2022-11-20T13:00:23.141Z,18.53
2022-11-20T13:03:32.587Z,20.60
2022-11-20T13:06:09.706Z,19.10
2022-11-20T13:08:45.683Z,17.70
2022-11-20T13:11:21.368Z,18.20
2022-11-20T13:14:11.890Z,18.07
2022-11-20T13:16:47.386Z,18.40
2022-11-20T13:19:18.718Z,18.77
2022-11-20T13:21:50.523Z,17.27
2022-11-20T13:24:31.616Z,18.07
2022-11-20T13:27:20.857Z,20.03
2022-11-20T13:30:02.950Z,18.10
2022-11-20T13:32:33.478Z,20.00
2022-11-20T13:35:05.292Z,18.80
2022-11-20T13:37:36.750Z,16.27
2022-11-20T13:40:22.761Z,16.27
2022-11-20T13:42:59.802Z,18.40
2022-11-20T13:45:30.320Z,16.43
2022-11-20T13:48:00.668Z,19.10
2022-11-20T13:50:43.545Z,16.50
2022-11-20T13:53:30.058Z,18.90
2022-11-20T13:56:06.676Z,18.70
2022-11-20T13:58:49.294Z,15.20
2022-11-20T14:01:21.985Z,18.77
2022-11-20T14:04:05.703Z,14.93
2022-11-20T14:06:41.509Z,17.03
2022-11-20T14:09:14.822Z,16.47
2022-11-20T14:11:53.285Z,18.13
2022-11-20T14:14:24.200Z,14.80
2022-11-20T14:16:54.186Z,15.70
2022-11-20T14:19:32.034Z,15.57
2022-11-20T14:22:20.382Z,16.10
2022-11-20T14:24:49.970Z,16.23
2022-11-20T14:27:22.723Z,16.03
2022-11-20T14:29:53.562Z,15.87
2022-11-20T14:32:26.880Z,16.40
2022-11-20T14:34:56.198Z,15.87
2022-11-20T14:37:30.295Z,21.40
2022-11-20T14:40:00.690Z,18.43
2022-11-20T14:42:32.803Z,18.90
2022-11-20T14:45:03.721Z,17.07
2022-11-20T14:47:39.753Z,20.43
2022-11-20T14:50:18.041Z,16.43
2022-11-20T14:52:55.855Z,23.17
2022-11-20T14:55:33.488Z,19.73
2022-11-20T14:58:05.734Z,22.63
2022-11-20T15:00:36.841Z,18.97
2022-11-20T15:03:19.619Z,19.93
2022-11-20T15:05:50.796Z,19.87
2022-11-20T15:08:20.100Z,22.27
2022-11-20T15:10:51.182Z,24.90
2022-11-20T15:13:28.978Z,21.17
2022-11-20T15:16:01.695Z,20.07
2022-11-20T15:18:33.561Z,21.37
2022-11-20T15:21:06.054Z,21.77
2022-11-20T15:23:35.113Z,24.10
2022-11-20T15:26:04.365Z,19.90
2022-11-20T15:28:37.164Z,21.73
2022-11-20T15:31:07.899Z,19.97
2022-11-20T15:33:38.219Z,19.10
2022-11-20T15:36:07.934Z,21.03
2022-11-20T15:38:36.564Z,27.57
2022-11-20T15:41:06.326Z,32.83
2022-11-20T15:43:37.084Z,37.13
2022-11-20T15:46:08.624Z,25.83
2022-11-20T15:48:46.351Z,32.53
2022-11-20T15:51:26.504Z,34.13
2022-11-20T15:53:58.346Z,33.40
2022-11-20T15:56:28.049Z,27.83
2022-11-20T15:58:59.101Z,35.83
2022-11-20T16:01:28.611Z,29.77
2022-11-20T16:03:57.361Z,30.13
2022-11-20T16:06:25.951Z,30.20
2022-11-20T16:08:55.383Z,32.87
2022-11-20T16:11:24.453Z,28.53
2022-11-20T16:14:10.483Z,28.53
2022-11-20T16:16:43.103Z,30.63
2022-11-20T16:19:14.436Z,31.27
2022-11-20T16:21:44.359Z,31.60
2022-11-20T16:24:15.533Z,31.00
2022-11-20T16:26:45.605Z,25.67
2022-11-20T16:29:14.803Z,21.97
2022-11-20T16:31:45.094Z,30.53
2022-11-20T16:34:14.303Z,25.07
2022-11-20T16:36:45.298Z,24.43
2022-11-20T16:39:23.912Z,25.83
2022-11-20T16:41:53.376Z,29.90
2022-11-20T16:44:23.795Z,28.27
2022-11-20T16:46:54.971Z,29.70
2022-11-20T16:49:24.281Z,28.47
2022-11-20T16:51:53.933Z,37.43
2022-11-20T16:54:23.510Z,30.80
2022-11-20T16:56:55.537Z,28.80
2022-11-20T16:59:24.852Z,28.07
2022-11-20T17:01:55.399Z,32.73
2022-11-20T17:07:08.185Z,34.03
2022-11-20T17:09:39.501Z,37.53
2022-11-20T17:12:10.016Z,31.27
2022-11-20T17:14:39.409Z,33.27
2022-11-20T17:17:10.243Z,37.97
2022-11-20T17:19:39.604Z,34.90
2022-11-20T17:22:09.155Z,35.30
2022-11-20T17:24:38.485Z,31.77
2022-11-20T17:27:07.814Z,37.03
2022-11-20T17:29:41.779Z,38.33
2022-11-20T17:32:13.250Z,29.67
2022-11-20T17:34:52.945Z,30.90
2022-11-20T17:37:22.456Z,33.23
2022-11-20T17:39:51.163Z,37.00
2022-11-20T17:42:33.238Z,33.43
2022-11-20T17:45:02.331Z,33.20
2022-11-20T17:47:34.540Z,33.07
2022-11-20T17:50:04.458Z,35.50
2022-11-20T17:52:33.738Z,34.60
2022-11-20T17:55:03.091Z,34.13
2022-11-20T17:57:51.840Z,32.80
2022-11-20T18:00:22.813Z,34.30
2022-11-20T18:02:54.123Z,36.00
2022-11-20T18:05:24.053Z,34.40
2022-11-20T18:07:55.574Z,44.30
2022-11-20T18:10:27.005Z,38.63
2022-11-20T18:12:56.725Z,38.53
2022-11-20T18:15:26.761Z,37.90
2022-11-20T18:17:58.100Z,42.00
2022-11-20T18:20:36.578Z,37.57
2022-11-20T18:23:26.382Z,39.10
2022-11-20T18:26:02.446Z,35.23
2022-11-20T18:28:33.939Z,33.83
2022-11-20T18:31:07.260Z,37.07
2022-11-20T18:33:39.815Z,36.10
2022-11-20T18:36:13.260Z,37.90
2022-11-20T18:38:48.179Z,40.30
2022-11-20T18:41:34.647Z,37.67
2022-11-20T18:44:22.526Z,39.57
2022-11-20T18:46:54.188Z,33.33
2022-11-20T18:49:26.585Z,34.30
2022-11-20T18:51:57.983Z,35.50
2022-11-20T18:54:33.930Z,37.23
2022-11-20T18:57:03.303Z,32.37
2022-11-20T18:59:36.690Z,34.90
2022-11-20T19:02:07.860Z,34.87
2022-11-20T19:04:40.570Z,33.67
2022-11-20T19:07:15.058Z,33.20
2022-11-20T19:09:48.997Z,36.83
2022-11-20T19:12:22.718Z,38.63
2022-11-20T19:14:52.260Z,43.97
2022-11-20T19:17:23.439Z,39.10
2022-11-20T19:19:56.219Z,34.60
2022-11-20T19:22:24.885Z,37.23
2022-11-20T19:24:53.894Z,32.10
2022-11-20T19:27:23.083Z,38.93
2022-11-20T19:29:53.071Z,34.87
2022-11-20T19:32:21.854Z,36.87
2022-11-20T19:34:52.826Z,35.53
2022-11-20T19:37:24.016Z,34.27
2022-11-20T19:39:53.183Z,34.20
2022-11-20T19:42:24.860Z,31.77
2022-11-20T19:44:54.462Z,39.93
2022-11-20T19:47:40.859Z,35.40
2022-11-20T19:50:32.679Z,38.03
2022-11-20T19:53:07.232Z,38.03
2022-11-20T19:55:37.693Z,30.80
2022-11-20T19:58:10.067Z,33.53
2022-11-20T20:00:47.691Z,33.60
2022-11-20T20:03:17.004Z,41.70
2022-11-20T20:05:46.541Z,39.23
2022-11-20T20:08:17.921Z,38.40
2022-11-20T20:10:47.214Z,33.37
2022-11-20T20:13:16.662Z,32.93
2022-11-20T20:15:45.935Z,35.90
2022-11-20T20:18:15.091Z,32.40
2022-11-20T20:20:44.580Z,32.33
2022-11-20T20:23:13.962Z,35.40
2022-11-20T20:25:44.693Z,32.77
2022-11-20T20:28:13.935Z,30.40
2022-11-20T20:30:42.727Z,39.10
2022-11-20T20:33:11.459Z,35.43
2022-11-20T20:35:43.489Z,30.83
2022-11-20T20:38:12.685Z,37.03
2022-11-20T20:40:50.889Z,38.97
2022-11-20T20:43:25.595Z,34.77
2022-11-20T20:45:55.762Z,40.87
2022-11-20T20:48:26.894Z,36.87
2022-11-20T20:50:56.316Z,36.17
2022-11-20T20:53:26.023Z,45.10
2022-11-20T20:55:58.687Z,39.43
2022-11-20T20:58:30.576Z,41.07
2022-11-20T21:01:04.259Z,42.87
2022-11-20T21:03:35.300Z,36.77
2022-11-20T21:06:04.636Z,42.87
2022-11-20T21:08:33.841Z,39.20
2022-11-20T21:11:04.741Z,38.10
2022-11-20T21:13:36.090Z,45.00
2022-11-20T21:16:06.716Z,35.53
2022-11-20T21:18:36.006Z,34.10
2022-11-20T21:21:24.195Z,41.37
2022-11-20T21:23:54.078Z,38.57
2022-11-20T21:26:23.592Z,44.20
2022-11-20T21:28:54.332Z,40.40
2022-11-20T21:31:25.484Z,39.70
2022-11-20T21:33:56.652Z,43.70
2022-11-20T21:36:28.000Z,47.20
2022-11-20T21:38:57.616Z,48.63
2022-11-20T21:41:28.202Z,50.27
2022-11-20T21:46:49.235Z,48.80
2022-11-20T21:49:18.546Z,52.13
2022-11-20T21:51:47.499Z,47.17
2022-11-20T21:54:17.751Z,52.97
2022-11-20T21:56:46.496Z,54.73
2022-11-20T21:59:16.667Z,48.70
2022-11-20T22:01:45.504Z,56.03
2022-11-20T22:04:15.925Z,53.93
2022-11-20T22:06:44.691Z,56.13
2022-11-20T22:09:13.443Z,56.30
2022-11-20T22:11:42.237Z,52.00
2022-11-20T22:14:24.745Z,55.93
2022-11-20T22:16:55.926Z,65.17
2022-11-20T22:19:25.458Z,66.03
2022-11-20T22:21:54.268Z,68.37
2022-11-20T22:24:24.431Z,65.37
2022-11-20T22:26:53.312Z,72.50
2022-11-20T22:29:22.781Z,84.57
2022-11-20T22:31:55.068Z,83.47
2022-11-20T22:34:23.849Z,76.63
2022-11-20T22:36:52.666Z,79.23
2022-11-20T22:39:23.110Z,75.40
2022-11-20T22:41:51.788Z,70.17
2022-11-20T22:44:20.503Z,81.10
2022-11-20T22:46:49.145Z,79.23
2022-11-20T22:49:19.956Z,79.30
2022-11-20T22:51:48.652Z,69.57
2022-11-20T22:54:17.370Z,73.43
2022-11-20T22:56:46.373Z,69.60
2022-11-20T22:59:15.809Z,70.33
2022-11-20T23:01:44.516Z,64.67
2022-11-20T23:04:13.452Z,69.87
2022-11-20T23:06:43.754Z,71.30
2022-11-20T23:09:13.127Z,79.13
2022-11-20T23:11:41.843Z,78.37
2022-11-20T23:14:15.421Z,71.80
2022-11-20T23:16:44.286Z,81.40
2022-11-20T23:19:14.716Z,74.87
2022-11-20T23:21:45.048Z,79.27
2022-11-20T23:24:13.767Z,78.23
2022-11-20T23:26:43.543Z,77.37
2022-11-20T23:29:12.297Z,82.70
2022-11-20T23:31:40.979Z,75.83
2022-11-20T23:34:09.715Z,63.40
2022-11-20T23:36:38.335Z,81.60
2022-11-20T23:39:09.104Z,73.73
2022-11-20T23:41:37.735Z,85.50
2022-11-20T23:44:06.487Z,87.87
2022-11-20T23:46:35.135Z,83.53
2022-11-20T23:49:03.828Z,86.97
2022-11-20T23:51:32.491Z,87.17
2022-11-20T23:54:04.802Z,79.90
2022-11-20T23:56:35.225Z,77.40
2022-11-20T23:59:07.443Z,82.00
